KJOT

Joliet Regional Airport

Joliet, Illinois, USA
METAR KJOT 110235Z AUTO 21006KT 7SM CLR M02/M03 A3017 RMK AO2 T10191034
Observed Flight Rules
Dec-11 @ 02:35 UTC (29 minutes ago) Visual Flight Rules
Wind Visibility Clouds
210° at 6 knots 7 miles
  • Clear skies
Temperatures Readings
Current -2°C / 28°F
Dewpoint -3°C / 27°F
Humidity 93%
Altimeter 30.17" Hg
Pressure 1022 hPa
Elevation 177
METAR KJOT 110235Z AUTO 21006KT 7SM CLR M02/M03 A3017 RMK AO2 T10191034
Observed Flight Rules
Dec-11 @ 02:35 UTC
(29 minutes ago)
VFR
Wind Visibility
210° at 6 knots 7 miles
Clouds
  • Clear skies
Temperature Dewpoint
-2°C / 28°F -3°C / 27°F
Humidity Altimeter Pressure
93% 30.17" Hg 1022 hPa